GFA509 OMDB-OBBI
Flight info
| Callsign | GFA509 |
|---|---|
| Flight time | 0h 45m |
| Altitude | 26000 |
| Route | NABIX3F NABIX P699 ORMID M556 ORDIG ORDIG1 |
| Aircraft | A320/M-SDE3FGHIRWY/LB1 |
Departure
| Time | 2026-04-25 01:15 |
|---|---|
| Airport | Dubai International Airport (OMDB) |
Arrival
| Time | 2026-04-25 02:01 |
|---|---|
| Airport | Bahrain International Airport (OBBI) |
| Time | Latitude | Longitude | Altitude | Speed | Heading |
|---|---|---|---|---|---|
| 2026-04-25 00:38 | 25.25646 | 55.34806 | 10 ft | 0 kts | 301° |
| 2026-04-25 00:58 | 25.25643 | 55.34811 | 10 ft | 2 kts | 299° |
| 2026-04-25 00:59 | 25.25643 | 55.34812 | 11 ft | 0 kts | 299° |
| 2026-04-25 00:59 | 25.25642 | 55.34813 | 11 ft | 0 kts | 299° |
| 2026-04-25 01:01 | 25.25643 | 55.34813 | 11 ft | 0 kts | 299° |
| 2026-04-25 01:03 | 25.25638 | 55.34821 | 11 ft | 2 kts | 297° |
| 2026-04-25 01:04 | 25.25630 | 55.34837 | 12 ft | 2 kts | 298° |
| 2026-04-25 01:04 | 25.25623 | 55.34853 | 11 ft | 2 kts | 300° |
| 2026-04-25 01:04 | 25.25614 | 55.34869 | 11 ft | 2 kts | 302° |
| 2026-04-25 01:04 | 25.25605 | 55.34884 | 10 ft | 2 kts | 311° |
| 2026-04-25 01:05 | 25.25592 | 55.34895 | 12 ft | 2 kts | 23° |
| 2026-04-25 01:05 | 25.25585 | 55.34892 | 12 ft | 0 kts | 30° |
| 2026-04-25 01:07 | 25.25611 | 55.34909 | 10 ft | 12 kts | 30° |
| 2026-04-25 01:07 | 25.25690 | 55.34960 | 10 ft | 13 kts | 31° |
| 2026-04-25 01:07 | 25.25763 | 55.35008 | 10 ft | 11 kts | 31° |
| 2026-04-25 01:07 | 25.25825 | 55.35049 | 10 ft | 10 kts | 31° |
| 2026-04-25 01:08 | 25.25878 | 55.35084 | 10 ft | 10 kts | 31° |
| 2026-04-25 01:08 | 25.25932 | 55.35120 | 12 ft | 8 kts | 31° |
| 2026-04-25 01:08 | 25.25985 | 55.35155 | 10 ft | 10 kts | 31° |
| 2026-04-25 01:08 | 25.26071 | 55.35214 | 11 ft | 19 kts | 32° |
| 2026-04-25 01:09 | 25.26101 | 55.35325 | 10 ft | 17 kts | 118° |
| 2026-04-25 01:09 | 25.26031 | 55.35453 | 10 ft | 25 kts | 122° |
| 2026-04-25 01:09 | 25.25920 | 55.35653 | 10 ft | 33 kts | 121° |
| 2026-04-25 01:09 | 25.25799 | 55.35871 | 11 ft | 33 kts | 121° |
| 2026-04-25 01:10 | 25.25678 | 55.36090 | 10 ft | 33 kts | 121° |
| 2026-04-25 01:10 | 25.25556 | 55.36308 | 9 ft | 33 kts | 121° |
| 2026-04-25 01:10 | 25.25437 | 55.36526 | 9 ft | 33 kts | 121° |
| 2026-04-25 01:10 | 25.25316 | 55.36741 | 10 ft | 33 kts | 122° |
| 2026-04-25 01:11 | 25.25196 | 55.36960 | 9 ft | 33 kts | 121° |
| 2026-04-25 01:11 | 25.25074 | 55.37179 | 10 ft | 34 kts | 121° |
| 2026-04-25 01:11 | 25.24948 | 55.37410 | 12 ft | 35 kts | 122° |
| 2026-04-25 01:11 | 25.24820 | 55.37637 | 11 ft | 35 kts | 121° |
| 2026-04-25 01:12 | 25.24700 | 55.37857 | 12 ft | 26 kts | 121° |
| 2026-04-25 01:12 | 25.24678 | 55.37957 | 13 ft | 8 kts | 59° |
| 2026-04-25 01:12 | 25.24679 | 55.37959 | 13 ft | 0 kts | 57° |
| 2026-04-25 01:12 | 25.24725 | 55.37990 | 11 ft | 14 kts | 28° |
| 2026-04-25 01:13 | 25.24812 | 55.38021 | 13 ft | 12 kts | 327° |
| 2026-04-25 01:13 | 25.24833 | 55.37980 | 11 ft | 0 kts | 301° |
| 2026-04-25 01:14 | 25.24834 | 55.37979 | 11 ft | 2 kts | 301° |
| 2026-04-25 01:14 | 25.24951 | 55.37770 | 13 ft | 69 kts | 301° |
| 2026-04-25 01:15 | 25.25318 | 55.37106 | 10 ft | 130 kts | 301° |
| 2026-04-25 01:15 | 25.25882 | 55.36088 | 20 ft | 177 kts | 301° |
| 2026-04-25 01:15 | 25.26508 | 55.34938 | 641 ft | 172 kts | 301° |
| 2026-04-25 01:15 | 25.27142 | 55.33788 | 1097 ft | 183 kts | 302° |
| 2026-04-25 01:16 | 25.27817 | 55.32575 | 1620 ft | 186 kts | 302° |
| 2026-04-25 01:16 | 25.28499 | 55.31350 | 2145 ft | 188 kts | 302° |
| 2026-04-25 01:16 | 25.29071 | 55.30044 | 2628 ft | 194 kts | 285° |
| 2026-04-25 01:16 | 25.29079 | 55.28475 | 2802 ft | 217 kts | 262° |
| 2026-04-25 01:17 | 25.28862 | 55.26752 | 2993 ft | 241 kts | 264° |
| 2026-04-25 01:17 | 25.28729 | 55.25470 | 3183 ft | 257 kts | 265° |
| 2026-04-25 01:17 | 25.28468 | 55.22783 | 3957 ft | 269 kts | 264° |
| 2026-04-25 01:17 | 25.28265 | 55.20721 | 4743 ft | 271 kts | 264° |
| 2026-04-25 01:18 | 25.28057 | 55.18645 | 5539 ft | 272 kts | 264° |
| 2026-04-25 01:18 | 25.27844 | 55.16559 | 6334 ft | 273 kts | 264° |
| 2026-04-25 01:18 | 25.27628 | 55.14470 | 7084 ft | 275 kts | 263° |
| 2026-04-25 01:18 | 25.27413 | 55.12376 | 7795 ft | 278 kts | 263° |
| 2026-04-25 01:19 | 25.27194 | 55.10246 | 8536 ft | 281 kts | 263° |
| 2026-04-25 01:19 | 25.26969 | 55.08084 | 9272 ft | 284 kts | 263° |
| 2026-04-25 01:19 | 25.26741 | 55.05906 | 9984 ft | 287 kts | 263° |
| 2026-04-25 01:19 | 25.26512 | 55.03704 | 10653 ft | 290 kts | 263° |
| 2026-04-25 01:20 | 25.26282 | 55.01479 | 11323 ft | 293 kts | 263° |
| 2026-04-25 01:20 | 25.26049 | 54.99233 | 12001 ft | 296 kts | 263° |
| 2026-04-25 01:20 | 25.25818 | 54.96990 | 12669 ft | 298 kts | 263° |
| 2026-04-25 01:20 | 25.25579 | 54.94693 | 13342 ft | 302 kts | 263° |
| 2026-04-25 01:21 | 25.25336 | 54.92376 | 13975 ft | 305 kts | 263° |
| 2026-04-25 01:21 | 25.25089 | 54.90039 | 14563 ft | 308 kts | 263° |
| 2026-04-25 01:21 | 25.24838 | 54.87682 | 14998 ft | 310 kts | 263° |
| 2026-04-25 01:21 | 25.24585 | 54.85305 | 15635 ft | 312 kts | 263° |
| 2026-04-25 01:22 | 25.24331 | 54.82916 | 16213 ft | 315 kts | 263° |
| 2026-04-25 01:22 | 25.24068 | 54.80440 | 16369 ft | 334 kts | 263° |
| 2026-04-25 01:22 | 25.23793 | 54.77855 | 16502 ft | 351 kts | 263° |
| 2026-04-25 01:22 | 25.23499 | 54.75082 | 16730 ft | 364 kts | 263° |
| 2026-04-25 01:23 | 25.23208 | 54.72316 | 17203 ft | 369 kts | 263° |
| 2026-04-25 01:23 | 25.22910 | 54.69477 | 17746 ft | 373 kts | 263° |
| 2026-04-25 01:23 | 25.22708 | 54.67581 | 18119 ft | 375 kts | 263° |
| 2026-04-25 01:23 | 25.22400 | 54.64701 | 18613 ft | 377 kts | 263° |
| 2026-04-25 01:24 | 25.22091 | 54.61809 | 19120 ft | 379 kts | 263° |
| 2026-04-25 01:24 | 25.21780 | 54.58902 | 19639 ft | 381 kts | 263° |
| 2026-04-25 01:24 | 25.21473 | 54.56021 | 20147 ft | 383 kts | 264° |
| 2026-04-25 01:24 | 25.21403 | 54.53070 | 20648 ft | 386 kts | 274° |
| 2026-04-25 01:25 | 25.21844 | 54.50137 | 21150 ft | 389 kts | 284° |
| 2026-04-25 01:25 | 25.22571 | 54.47246 | 21653 ft | 391 kts | 284° |
| 2026-04-25 01:25 | 25.23308 | 54.44341 | 22145 ft | 394 kts | 284° |
| 2026-04-25 01:25 | 25.24050 | 54.41419 | 22617 ft | 396 kts | 284° |
| 2026-04-25 01:26 | 25.24797 | 54.38478 | 23091 ft | 398 kts | 284° |
| 2026-04-25 01:26 | 25.25544 | 54.35523 | 23534 ft | 401 kts | 284° |
| 2026-04-25 01:26 | 25.26294 | 54.32542 | 23910 ft | 403 kts | 284° |
| 2026-04-25 01:26 | 25.27041 | 54.29555 | 24289 ft | 404 kts | 284° |
| 2026-04-25 01:27 | 25.27789 | 54.26550 | 24668 ft | 406 kts | 284° |
| 2026-04-25 01:27 | 25.28525 | 54.23573 | 25039 ft | 407 kts | 284° |
| 2026-04-25 01:27 | 25.29276 | 54.20534 | 25411 ft | 408 kts | 284° |
| 2026-04-25 01:28 | 25.30774 | 54.14447 | 25867 ft | 409 kts | 284° |
| 2026-04-25 01:28 | 25.31504 | 54.11410 | 25891 ft | 409 kts | 283° |
| 2026-04-25 01:28 | 25.32182 | 54.08364 | 25892 ft | 408 kts | 282° |
| 2026-04-25 01:28 | 25.32824 | 54.05297 | 25888 ft | 408 kts | 281° |
| 2026-04-25 01:29 | 25.33444 | 54.02242 | 25889 ft | 407 kts | 281° |
| 2026-04-25 01:29 | 25.34063 | 53.99185 | 25888 ft | 407 kts | 281° |
| 2026-04-25 01:29 | 25.34689 | 53.96131 | 25898 ft | 407 kts | 281° |
| 2026-04-25 01:29 | 25.35322 | 53.93074 | 25896 ft | 407 kts | 282° |
| 2026-04-25 01:30 | 25.35953 | 53.90070 | 25897 ft | 407 kts | 282° |
| 2026-04-25 01:30 | 25.36599 | 53.87012 | 25893 ft | 407 kts | 282° |
| 2026-04-25 01:30 | 25.37245 | 53.83964 | 25893 ft | 407 kts | 282° |
| 2026-04-25 01:30 | 25.37894 | 53.80903 | 25893 ft | 407 kts | 282° |
| 2026-04-25 01:31 | 25.38542 | 53.77844 | 25895 ft | 407 kts | 282° |
| 2026-04-25 01:31 | 25.39184 | 53.74794 | 25894 ft | 407 kts | 282° |
| 2026-04-25 01:31 | 25.39823 | 53.71740 | 25894 ft | 407 kts | 282° |
| 2026-04-25 01:31 | 25.40466 | 53.68681 | 25896 ft | 407 kts | 282° |
| 2026-04-25 01:32 | 25.41107 | 53.65625 | 25897 ft | 407 kts | 282° |
| 2026-04-25 01:32 | 25.41745 | 53.62568 | 25895 ft | 407 kts | 282° |
| 2026-04-25 01:32 | 25.42381 | 53.59510 | 25895 ft | 407 kts | 282° |
| 2026-04-25 01:32 | 25.43019 | 53.56457 | 25900 ft | 407 kts | 282° |
| 2026-04-25 01:33 | 25.43647 | 53.53443 | 25898 ft | 407 kts | 282° |
| 2026-04-25 01:33 | 25.44286 | 53.50380 | 25894 ft | 407 kts | 281° |
| 2026-04-25 01:33 | 25.44923 | 53.47320 | 25894 ft | 407 kts | 281° |
| 2026-04-25 01:33 | 25.45556 | 53.44265 | 25895 ft | 407 kts | 281° |
| 2026-04-25 01:34 | 25.46188 | 53.41204 | 25900 ft | 407 kts | 281° |
| 2026-04-25 01:34 | 25.46822 | 53.38144 | 25901 ft | 407 kts | 281° |
| 2026-04-25 01:34 | 25.47449 | 53.35120 | 25901 ft | 407 kts | 281° |
| 2026-04-25 01:34 | 25.48082 | 53.32065 | 25900 ft | 407 kts | 281° |
| 2026-04-25 01:35 | 25.48714 | 53.29009 | 25901 ft | 407 kts | 281° |
| 2026-04-25 01:35 | 25.49345 | 53.25942 | 25906 ft | 407 kts | 281° |
| 2026-04-25 01:35 | 25.49974 | 53.22881 | 25904 ft | 407 kts | 281° |
| 2026-04-25 01:35 | 25.50603 | 53.19819 | 25903 ft | 407 kts | 281° |
| 2026-04-25 01:36 | 25.51231 | 53.16757 | 25905 ft | 407 kts | 281° |
| 2026-04-25 01:36 | 25.51858 | 53.13694 | 25904 ft | 407 kts | 281° |
| 2026-04-25 01:36 | 25.52484 | 53.10626 | 25906 ft | 407 kts | 281° |
| 2026-04-25 01:36 | 25.53100 | 53.07608 | 25904 ft | 407 kts | 281° |
| 2026-04-25 01:37 | 25.53729 | 53.04545 | 25906 ft | 407 kts | 281° |
| 2026-04-25 01:37 | 25.54358 | 53.01483 | 25907 ft | 407 kts | 281° |
| 2026-04-25 01:37 | 25.54983 | 52.98422 | 25907 ft | 407 kts | 281° |
| 2026-04-25 01:37 | 25.55607 | 52.95363 | 25905 ft | 407 kts | 281° |
| 2026-04-25 01:38 | 25.56311 | 52.92313 | 25907 ft | 408 kts | 287° |
| 2026-04-25 01:38 | 25.57415 | 52.89415 | 25911 ft | 411 kts | 296° |
| 2026-04-25 01:38 | 25.58876 | 52.86689 | 25914 ft | 412 kts | 299° |
| 2026-04-25 01:38 | 25.60375 | 52.83977 | 25910 ft | 412 kts | 299° |
| 2026-04-25 01:39 | 25.61875 | 52.81267 | 25909 ft | 412 kts | 299° |
| 2026-04-25 01:39 | 25.63375 | 52.78560 | 25912 ft | 412 kts | 299° |
| 2026-04-25 01:39 | 25.64875 | 52.75849 | 25914 ft | 412 kts | 299° |
| 2026-04-25 01:39 | 25.66374 | 52.73138 | 25912 ft | 412 kts | 299° |
| 2026-04-25 01:40 | 25.67852 | 52.70459 | 25915 ft | 412 kts | 299° |
| 2026-04-25 01:40 | 25.69367 | 52.67712 | 25912 ft | 412 kts | 299° |
| 2026-04-25 01:40 | 25.70847 | 52.65030 | 25916 ft | 412 kts | 299° |
| 2026-04-25 01:40 | 25.72348 | 52.62313 | 25915 ft | 412 kts | 299° |
| 2026-04-25 01:41 | 25.73851 | 52.59597 | 25918 ft | 412 kts | 299° |
| 2026-04-25 01:41 | 25.75350 | 52.56883 | 25915 ft | 412 kts | 298° |
| 2026-04-25 01:41 | 25.76845 | 52.54168 | 25915 ft | 412 kts | 298° |
| 2026-04-25 01:41 | 25.78340 | 52.51451 | 25918 ft | 412 kts | 298° |
| 2026-04-25 01:42 | 25.79835 | 52.48735 | 25916 ft | 412 kts | 298° |
| 2026-04-25 01:42 | 25.81327 | 52.46023 | 25920 ft | 412 kts | 298° |
| 2026-04-25 01:42 | 25.82823 | 52.43306 | 25918 ft | 412 kts | 298° |
| 2026-04-25 01:42 | 25.84301 | 52.40621 | 25922 ft | 412 kts | 298° |
| 2026-04-25 01:43 | 25.85792 | 52.37905 | 25923 ft | 411 kts | 298° |
| 2026-04-25 01:43 | 25.87280 | 52.35186 | 25920 ft | 411 kts | 298° |
| 2026-04-25 01:43 | 25.88769 | 52.32463 | 25919 ft | 411 kts | 298° |
| 2026-04-25 01:43 | 25.90257 | 52.29750 | 25925 ft | 411 kts | 298° |
| 2026-04-25 01:44 | 25.91744 | 52.27035 | 25927 ft | 411 kts | 298° |
| 2026-04-25 01:44 | 25.93229 | 52.24324 | 25923 ft | 411 kts | 298° |
| 2026-04-25 01:44 | 25.94717 | 52.21612 | 25928 ft | 411 kts | 298° |
| 2026-04-25 01:44 | 25.96204 | 52.18897 | 25929 ft | 411 kts | 298° |
| 2026-04-25 01:45 | 25.97670 | 52.16213 | 25929 ft | 410 kts | 298° |
| 2026-04-25 01:45 | 25.99152 | 52.13491 | 25928 ft | 410 kts | 298° |
| 2026-04-25 01:45 | 26.00654 | 52.10733 | 25930 ft | 422 kts | 298° |
| 2026-04-25 01:45 | 26.02193 | 52.07909 | 25931 ft | 432 kts | 298° |
| 2026-04-25 01:46 | 26.03768 | 52.05016 | 25928 ft | 441 kts | 298° |
| 2026-04-25 01:46 | 26.05370 | 52.02069 | 25931 ft | 449 kts | 298° |
| 2026-04-25 01:46 | 26.07000 | 51.99070 | 25930 ft | 456 kts | 298° |
| 2026-04-25 01:46 | 26.08634 | 51.96069 | 25934 ft | 461 kts | 298° |
| 2026-04-25 01:47 | 26.10327 | 51.92964 | 25935 ft | 465 kts | 298° |
| 2026-04-25 01:47 | 26.11986 | 51.89919 | 25934 ft | 467 kts | 298° |
| 2026-04-25 01:47 | 26.13671 | 51.86820 | 25934 ft | 467 kts | 298° |
| 2026-04-25 01:47 | 26.15357 | 51.83714 | 25938 ft | 467 kts | 298° |
| 2026-04-25 01:48 | 26.17036 | 51.80618 | 25938 ft | 468 kts | 298° |
| 2026-04-25 01:48 | 26.18720 | 51.77512 | 25938 ft | 468 kts | 298° |
| 2026-04-25 01:48 | 26.20408 | 51.74400 | 25943 ft | 467 kts | 298° |
| 2026-04-25 01:48 | 26.22073 | 51.71329 | 25944 ft | 467 kts | 298° |
| 2026-04-25 01:49 | 26.23755 | 51.68217 | 25942 ft | 467 kts | 298° |
| 2026-04-25 01:49 | 26.25429 | 51.65118 | 25941 ft | 467 kts | 298° |
| 2026-04-25 01:49 | 26.27102 | 51.62015 | 25946 ft | 467 kts | 298° |
| 2026-04-25 01:49 | 26.28774 | 51.58912 | 25948 ft | 467 kts | 298° |
| 2026-04-25 01:50 | 26.30425 | 51.55847 | 25945 ft | 464 kts | 298° |
| 2026-04-25 01:50 | 26.32094 | 51.52754 | 25944 ft | 456 kts | 298° |
| 2026-04-25 01:50 | 26.33712 | 51.49759 | 25763 ft | 455 kts | 298° |
| 2026-04-25 01:50 | 26.35333 | 51.46751 | 25155 ft | 450 kts | 298° |
| 2026-04-25 01:51 | 26.36750 | 51.43676 | 24557 ft | 442 kts | 288° |
| 2026-04-25 01:51 | 26.37441 | 51.40379 | 23885 ft | 432 kts | 272° |
| 2026-04-25 01:51 | 26.37353 | 51.37051 | 23058 ft | 426 kts | 259° |
| 2026-04-25 01:51 | 26.36552 | 51.33908 | 21920 ft | 418 kts | 249° |
| 2026-04-25 01:52 | 26.35582 | 51.30912 | 20849 ft | 413 kts | 249° |
| 2026-04-25 01:52 | 26.34612 | 51.27912 | 19794 ft | 408 kts | 249° |
| 2026-04-25 01:52 | 26.33663 | 51.24948 | 18778 ft | 403 kts | 249° |
| 2026-04-25 01:52 | 26.32720 | 51.21998 | 17718 ft | 407 kts | 249° |
| 2026-04-25 01:53 | 26.31761 | 51.19001 | 16590 ft | 413 kts | 249° |
| 2026-04-25 01:53 | 26.30798 | 51.15989 | 15493 ft | 410 kts | 248° |
| 2026-04-25 01:53 | 26.29850 | 51.13021 | 14410 ft | 402 kts | 248° |
| 2026-04-25 01:53 | 26.28932 | 51.10145 | 13314 ft | 395 kts | 248° |
| 2026-04-25 01:54 | 26.28021 | 51.07289 | 12162 ft | 387 kts | 248° |
| 2026-04-25 01:54 | 26.27124 | 51.04487 | 11007 ft | 380 kts | 248° |
| 2026-04-25 01:54 | 26.26238 | 51.01728 | 9828 ft | 375 kts | 248° |
| 2026-04-25 01:54 | 26.25361 | 50.99004 | 8565 ft | 370 kts | 249° |
| 2026-04-25 01:55 | 26.24496 | 50.96320 | 7359 ft | 365 kts | 249° |
| 2026-04-25 01:55 | 26.23645 | 50.93677 | 6120 ft | 360 kts | 250° |
| 2026-04-25 01:55 | 26.22802 | 50.91065 | 4830 ft | 356 kts | 251° |
| 2026-04-25 01:55 | 26.21967 | 50.88476 | 3525 ft | 353 kts | 252° |
| 2026-04-25 01:56 | 26.21150 | 50.85941 | 2394 ft | 348 kts | 253° |
| 2026-04-25 01:56 | 26.20360 | 50.83507 | 2063 ft | 319 kts | 253° |
| 2026-04-25 01:56 | 26.19639 | 50.81297 | 1978 ft | 286 kts | 255° |
| 2026-04-25 01:56 | 26.19263 | 50.79276 | 1980 ft | 249 kts | 272° |
| 2026-04-25 01:57 | 26.19794 | 50.76084 | 2001 ft | 173 kts | 300° |
| 2026-04-25 01:57 | 26.20333 | 50.75036 | 1957 ft | 141 kts | 308° |
| 2026-04-25 01:57 | 26.20866 | 50.74117 | 1894 ft | 140 kts | 308° |
| 2026-04-25 01:58 | 26.21388 | 50.73215 | 1727 ft | 137 kts | 309° |
| 2026-04-25 01:58 | 26.21894 | 50.72343 | 1560 ft | 135 kts | 308° |
| 2026-04-25 01:58 | 26.22402 | 50.71464 | 1382 ft | 134 kts | 308° |
| 2026-04-25 01:58 | 26.22907 | 50.70594 | 1215 ft | 133 kts | 307° |
| 2026-04-25 01:59 | 26.23406 | 50.69733 | 1073 ft | 132 kts | 308° |
| 2026-04-25 01:59 | 26.23911 | 50.68868 | 905 ft | 133 kts | 308° |
| 2026-04-25 01:59 | 26.24406 | 50.68011 | 679 ft | 132 kts | 307° |
| 2026-04-25 01:59 | 26.24895 | 50.67144 | 517 ft | 132 kts | 307° |
| 2026-04-25 02:00 | 26.25383 | 50.66281 | 357 ft | 131 kts | 308° |
| 2026-04-25 02:00 | 26.25880 | 50.65434 | 199 ft | 130 kts | 307° |
| 2026-04-25 02:00 | 26.26377 | 50.64582 | 40 ft | 130 kts | 306° |
| 2026-04-25 02:00 | 26.26822 | 50.63816 | 17 ft | 101 kts | 303° |
| 2026-04-25 02:01 | 26.27110 | 50.63318 | 15 ft | 51 kts | 303° |
| 2026-04-25 02:01 | 26.27229 | 50.63073 | 16 ft | 34 kts | 288° |
| 2026-04-25 02:01 | 26.27210 | 50.62853 | 19 ft | 23 kts | 199° |
| 2026-04-25 02:01 | 26.27126 | 50.63001 | 22 ft | 32 kts | 116° |
| 2026-04-25 02:02 | 26.26912 | 50.63316 | 20 ft | 89 kts | 123° |
| 2026-04-25 02:02 | 26.26567 | 50.63920 | 21 ft | 54 kts | 121° |
| 2026-04-25 02:02 | 26.26387 | 50.64235 | 20 ft | 42 kts | 124° |
| 2026-04-25 02:02 | 26.26333 | 50.64339 | 19 ft | 0 kts | 86° |
| 2026-04-25 02:03 | 26.26324 | 50.64361 | 18 ft | 12 kts | 131° |
| 2026-04-25 02:03 | 26.26307 | 50.64300 | 19 ft | 20 kts | 321° |
| 2026-04-25 02:04 | 26.26534 | 50.63952 | 22 ft | 92 kts | 302° |
| 2026-04-25 02:04 | 26.26747 | 50.63390 | 22 ft | 71 kts | 300° |
| 2026-04-25 02:04 | 26.26865 | 50.63177 | 21 ft | 26 kts | 303° |
| 2026-04-25 02:04 | 26.26867 | 50.63117 | 22 ft | 6 kts | 216° |
| 2026-04-25 02:05 | 26.26822 | 50.63086 | 21 ft | 8 kts | 212° |
| 2026-04-25 02:05 | 26.26803 | 50.63073 | 20 ft | 0 kts | 213° |